地図

経路データ

SID SEASON NUMBER BASIN SUBBASIN NAME ISO_TIME NATURE LAT LON WMO_WIND WMO_PRES WMO_AGENCY TRACK_TYPE DIST2LAND LANDFALL IFLAG USA_AGENCY USA_ATCF_ID USA_LAT USA_LON USA_RECORD USA_STATUS USA_WIND USA_PRES USA_SSHS USA_R34_NE USA_R34_SE USA_R34_SW USA_R34_NW USA_R50_NE USA_R50_SE USA_R50_SW USA_R50_NW USA_R64_NE USA_R64_SE USA_R64_SW USA_R64_NW USA_POCI USA_ROCI USA_RMW USA_EYE TOKYO_LAT TOKYO_LON TOKYO_GRADE TOKYO_WIND TOKYO_PRES TOKYO_R50_DIR TOKYO_R50_LONG TOKYO_R50_SHORT TOKYO_R30_DIR TOKYO_R30_LONG TOKYO_R30_SHORT TOKYO_LAND CMA_LAT CMA_LON CMA_CAT CMA_WIND CMA_PRES HKO_LAT HKO_LON HKO_CAT HKO_WIND HKO_PRES NEWDELHI_LAT NEWDELHI_LON NEWDELHI_GRADE NEWDELHI_WIND NEWDELHI_PRES NEWDELHI_CI NEWDELHI_DP NEWDELHI_POCI REUNION_LAT REUNION_LON REUNION_TYPE REUNION_WIND REUNION_PRES REUNION_TNUM REUNION_CI REUNION_RMW REUNION_R34_NE REUNION_R34_SE REUNION_R34_SW REUNION_R34_NW REUNION_R50_NE REUNION_R50_SE REUNION_R50_SW REUNION_R50_NW REUNION_R64_NE REUNION_R64_SE REUNION_R64_SW REUNION_R64_NW BOM_LAT BOM_LON BOM_TYPE BOM_WIND BOM_PRES BOM_TNUM BOM_CI BOM_RMW BOM_R34_NE BOM_R34_SE BOM_R34_SW BOM_R34_NW BOM_R50_NE BOM_R50_SE BOM_R50_SW BOM_R50_NW BOM_R64_NE BOM_R64_SE BOM_R64_SW BOM_R64_NW BOM_ROCI BOM_POCI BOM_EYE BOM_POS_METHOD BOM_PRES_METHOD NADI_LAT NADI_LON NADI_CAT NADI_WIND NADI_PRES WELLINGTON_LAT WELLINGTON_LON WELLINGTON_WIND WELLINGTON_PRES DS824_LAT DS824_LON DS824_STAGE DS824_WIND DS824_PRES TD9636_LAT TD9636_LON TD9636_STAGE TD9636_WIND TD9636_PRES TD9635_LAT TD9635_LON TD9635_WIND TD9635_PRES TD9635_ROCI NEUMANN_LAT NEUMANN_LON NEUMANN_CLASS NEUMANN_WIND NEUMANN_PRES MLC_LAT MLC_LON MLC_CLASS MLC_WIND MLC_PRES USA_GUST BOM_GUST BOM_GUST_PER REUNION_GUST REUNION_GUST_PER USA_SEAHGT USA_SEARAD_NE USA_SEARAD_SE USA_SEARAD_SW USA_SEARAD_NW STORM_SPEED STORM_DIR
1967052S20038 1967 15 SI MM IRMA 1967-02-21 06:00:00 TS -20.0000 38.4000 reunion main 252 252 _____O______O_ -1 -20.0000 38.4000 2 9.90000 -20.0000 38.4000 TC 20 3 91
1967052S20038 1967 15 SI MM IRMA 1967-02-21 09:00:00 TS -20.0025 38.5450 main 261 261 _____P______P_ -1 -20.0025 38.5450 2 -20.0025 38.5450 TC 22 3 90
1967052S20038 1967 15 SI MM IRMA 1967-02-21 12:00:00 TS -20.0000 38.7000 reunion main 276 276 _____O______O_ -1 -20.0000 38.7000 99 9.90000 -20.0000 38.7000 TC 25 3 88
1967052S20038 1967 15 SI MM IRMA 1967-02-21 15:00:00 TS -19.9925 38.8650 main 291 291 _____P______P_ -1 -19.9925 38.8650 99 -19.9925 38.8650 TC 15 3 90
1967052S20038 1967 15 SI MM IRMA 1967-02-21 18:00:00 TS -20.0000 39.0000 reunion main 298 298 _____O______O_ -1 -20.0000 39.0000 99 9.90000 -20.0000 39.0000 TC 5 2 105
1967052S20038 1967 15 SI MM IRMA 1967-02-21 21:00:00 TS -20.0425 39.0650 main 306 306 _____P______P_ -1 -20.0425 39.0650 99 -20.0425 39.0650 TC 17 1 137
1967052S20038 1967 15 SI MM IRMA 1967-02-22 00:00:00 TS -20.1000 39.1000 reunion main 313 313 _____O______O_ -1 -20.1000 39.1000 99 9.90000 -20.1000 39.1000 TC 30 1 147
1967052S20038 1967 15 SI MM IRMA 1967-02-22 03:00:00 TS -20.1425 39.1425 main 313 313 _____P______P_ -1 -20.1425 39.1425 99 -20.1425 39.1425 TC 30 1 137
1967052S20038 1967 15 SI MM IRMA 1967-02-22 06:00:00 TS -20.2000 39.2000 reunion main 329 329 _____O______O_ -1 -20.2000 39.2000 2 9.90000 -20.2000 39.2000 TC 30 2 131
1967052S20038 1967 15 SI MM IRMA 1967-02-22 09:00:00 TS -20.2775 39.3075 main 344 344 _____P______P_ -1 -20.2775 39.3075 2 -20.2775 39.3075 TC 30 3 137
1967052S20038 1967 15 SI MM IRMA 1967-02-22 12:00:00 TS -20.4000 39.4000 reunion main 359 359 _____O______O_ -1 -20.4000 39.4000 99 9.90000 -20.4000 39.4000 TC 30 3 161
1967052S20038 1967 15 SI MM IRMA 1967-02-22 15:00:00 TS -20.6000 39.4300 main 375 375 _____P______P_ -1 -20.6000 39.4300 99 -20.6000 39.4300 TC 17 4 0
1967052S20038 1967 15 SI MM IRMA 1967-02-22 18:00:00 TS -20.8000 39.4000 reunion main 387 385 _____O______O_ -1 -20.8000 39.4000 99 9.90000 -20.8000 39.4000 TC 5 3 198
1967052S20038 1967 15 SI MM IRMA 1967-02-22 21:00:00 TS -20.9300 39.3150 main 385 383 _____P______P_ -1 -20.9300 39.3150 99 -20.9300 39.3150 TC 17 3 223
1967052S20038 1967 15 SI MM IRMA 1967-02-23 00:00:00 TS -21.0000 39.2000 reunion main 383 375 _____O______O_ -1 -21.0000 39.2000 99 9.90000 -21.0000 39.2000 TC 30 2 249
1967052S20038 1967 15 SI MM IRMA 1967-02-23 03:00:00 TS -21.0000 39.1149 main 375 367 _____P______P_ -1 -21.0000 39.1149 99 -21.0000 39.1149 TC 30 2 270
1967052S20038 1967 15 SI MM IRMA 1967-02-23 06:00:00 TS -21.0000 39.0000 reunion main 367 358 _____O______O_ -1 -21.0000 39.0000 2 9.90000 -21.0000 39.0000 TC 30 3 249
1967052S20038 1967 15 SI MM IRMA 1967-02-23 09:00:00 TS -21.1000 38.8301 main 358 339 _____P______P_ -1 -21.1000 38.8301 2 -21.1000 38.8301 TC 30 4 242
1967052S20038 1967 15 SI MM IRMA 1967-02-23 12:00:00 TS -21.2000 38.6000 reunion main 339 319 _____O______O_ -1 -21.2000 38.6000 99 9.90000 -21.2000 38.6000 TC 30 5 256
1967052S20038 1967 15 SI MM IRMA 1967-02-23 15:00:00 TS -21.2148 38.3449 main 310 281 _____P______P_ -1 -21.2148 38.3449 99 -21.2148 38.3449 TC 17 6 270
1967052S20038 1967 15 SI MM IRMA 1967-02-23 18:00:00 TS -21.2000 38.0000 reunion main 281 242 _____O______O_ -1 -21.2000 38.0000 99 9.90000 -21.2000 38.0000 TC 5 8 271
1967052S20038 1967 15 SI MM IRMA 1967-02-23 21:00:00 TS -21.2001 37.5300 main 232 181 _____P______P_ -1 -21.2001 37.5300 99 -21.2001 37.5300 TC 15 9 270
1967052S20038 1967 15 SI MM IRMA 1967-02-24 00:00:00 TS -21.2000 37.0000 reunion main 181 132 _____O______O_ -1 -21.2000 37.0000 99 9.90000 -21.2000 37.0000 TC 25 10 270
1967052S20038 1967 15 SI MM IRMA 1967-02-24 03:00:00 TS -21.2002 36.4900 main 132 85 _____P______P_ -1 -21.2002 36.4900 99 -21.2002 36.4900 TC 22 9 270
1967052S20038 1967 15 SI MM IRMA 1967-02-24 06:00:00 TS -21.2000 36.0000 reunion main 85 _____O______O_ -1 -21.2000 36.0000 2 9.90000 -21.2000 36.0000 TC 20 9 270

IBTrACS Databaseについて

本データベースは、米国NOAAが公開する1842年以降の世界の熱帯低気圧のベストトラックデータアーカイブInternational Best Track Archive for Climate Stewardship (IBTrACS)を、ウェブで閲覧しやすい形式に変換したものです。

最終更新日:2021-10-25